LTBHLTBR

Guest
Details From LTBH - CANAKKALE
To LTBR - YENISEHIR
Flight Number -
Tags generated
Created
Modified
Stats Distance 145 nm / 268 km
Max Altitude 15,700 ft / 4,785 m
Waypoints 4
Social Downloads 0
Likes 0
Share VATSIM

Download

Looking for another format? Having issues loading an existing format? Contact us
Advertisement - Login to hide

Notes

Basic altitude profile: - Ascent Rate: 2500ft/min - Ascent Speed: 250kts - Cruise Altitude: 35000ft - Cruise Speed: 420kts - Descent Rate: 1500ft/min - Descent Speed: 250kts Options: - Use NATs: yes - Use PACOTS: yes - Use low airways: yes - Use high airways: yes

Route

LTBH CNK W92 BIG LTBR

ID Type Via Altitude Latitude Longitude Leg Dist Tot Dist Heading (true) Name
O LTBH APT - 0 ft / 0 m 40.13771˚ 26.42676˚ - 0 nm - CANAKKALE
CNK VOR - 0 ft / 0 m 40.13630˚ 26.42797˚ 0 nm 0 nm 147° / 147° CANAKKALE VOR-DME
BIG VOR W92 (AWY-LO) 15,700 ft / 4,785 m 40.28528˚ 27.36583˚ 43 nm 44 nm 78° / 79° BIGA VOR-DME
O LTBR APT - 0 ft / 0 m 40.25521˚ 29.56257˚ 100 nm 144 nm 90° / 92° YENISEHIR

Altitude Profile

Advertisement - Login to hide

LTBH

Details ICAO LTBH (CKZ)
Name CANAKKALE
Region Turkey
Timezone Europe/Istanbul (UTC+3.0)
Stats Elevation 23 ft / 7 m (AMSL)
Location 40.137709° 26.426764°
Runways 1
Magnetic Variation 5.031° E

METAR

LTBH 131050Z 22011KT 9999 FEW035 18/11 Q1019

Decode

TAF

Not found

Departure Runways

ID Width Length Bearing (true) Bearing (mag) Surface Threshold Offset Overrun Length
04 98 ft / 30 m 5,905 ft / 1,800 m 41.10° 36.07° Concrete 0 ft / 0 m 100 ft / 30 m
22 98 ft / 30 m 5,905 ft / 1,800 m 221.11° 216.08° Concrete 0 ft / 0 m 100 ft / 30 m

LTBR

Details ICAO LTBR (YEI)
Name YENISEHIR
Region Turkey
Timezone Europe/Istanbul (UTC+3.0)
Stats Elevation 764 ft / 233 m (AMSL)
Location 40.255208° 29.562569°
Runways 2
Magnetic Variation 5.407° E

METAR

LTBR 131050Z VRB02KT 6000 2500S BR NSC 08/07 Q1020 NOSIG

Decode

TAF

Not found

Destination Runways

ID Width Length Bearing (true) Bearing (mag) Surface Threshold Offset Overrun Length
07L 148 ft / 45 m 9,798 ft / 2,987 m 74.45° 69.04° Concrete 0 ft / 0 m 1,075 ft / 328 m
07R 98 ft / 30 m 9,799 ft / 2,987 m 74.45° 69.04° Concrete 0 ft / 0 m 137 ft / 42 m
25L 98 ft / 30 m 9,799 ft / 2,987 m 254.47° 249.06° Concrete 0 ft / 0 m 603 ft / 184 m
25R 148 ft / 45 m 9,798 ft / 2,987 m 254.48° 249.07° Concrete 0 ft / 0 m 1,082 ft / 330 m

Approach Navaids

Runway Type Ident Frequency Range Bearing (true) Bearing (mag) Slope Elevation
25R Localiser IYEN 109.70 MHz 18 nm / 33 km 254.21° 248.81° - 764 ft / 233 m (AMSL)
25R Glidescope IYEN 109.70 MHz 10 nm / 19 km 254.46° 249.06° 3.00° 798 ft / 243 m (AMSL)

Popular Alternatives